Time;durP1;ratioP1;P1;durP2;ratioP2;P2;SDS_P1;SDS_P2;PMS_P1;PMS_P2;Temp;Humidity;BMP_temperature;BMP_pressure;BME280_temperature;BME280_humidity;BME280_pressure;Samples;Min_cycle;Max_cycle;Signal;HPM_P1;HPM_P2
2023/04/21 00:00:50;;;;;;;32.57;24.23;;;6.30;99.90;;;;;;5013271;28;20032;-77
2023/04/21 00:03:16;;;;;;;35.10;26.27;;;6.30;99.90;;;;;;5013235;28;20037;-77
2023/04/21 00:05:42;;;;;;;37.90;25.40;;;6.30;99.90;;;;;;5014639;28;20504;-78
2023/04/21 00:08:08;;;;;;;34.70;25.03;;;6.30;99.90;;;;;;5013970;28;20041;-77
2023/04/21 00:10:33;;;;;;;34.63;25.73;;;6.30;99.90;;;;;;5012954;28;20026;-77
2023/04/21 00:12:59;;;;;;;33.57;25.83;;;6.30;99.90;;;;;;5013857;28;20038;-77
2023/04/21 00:15:24;;;;;;;38.00;26.03;;;6.30;99.90;;;;;;5013733;28;20052;-77
2023/04/21 00:17:50;;;;;;;35.77;25.73;;;6.30;99.90;;;;;;5013479;28;20026;-77
2023/04/21 00:20:16;;;;;;;35.77;24.43;;;6.30;99.90;;;;;;5013514;28;20060;-77
2023/04/21 00:22:42;;;;;;;34.13;25.23;;;6.30;99.90;;;;;;5013181;28;20108;-76
2023/04/21 00:25:08;;;;;;;34.77;26.63;;;6.30;99.90;;;;;;5013973;28;20030;-77
2023/04/21 00:27:33;;;;;;;36.30;25.47;;;6.30;99.90;;;;;;5013400;28;20045;-77
2023/04/21 00:29:59;;;;;;;33.07;25.20;;;6.30;99.90;;;;;;5012414;28;20076;-77
2023/04/21 00:32:25;;;;;;;33.43;25.13;;;6.30;99.90;;;;;;5013402;28;20747;-77
2023/04/21 00:34:50;;;;;;;35.80;25.07;;;6.30;99.90;;;;;;5013506;28;20367;-77
2023/04/21 00:37:16;;;;;;;32.93;25.07;;;6.30;99.90;;;;;;5013368;28;20029;-77
2023/04/21 00:39:41;;;;;;;38.57;26.70;;;6.30;99.90;;;;;;5012453;28;20030;-77
2023/04/21 00:42:07;;;;;;;33.83;24.23;;;6.30;99.90;;;;;;5012866;28;20044;-77
2023/04/21 00:44:32;;;;;;;33.40;24.33;;;6.30;99.90;;;;;;5013048;28;20064;-77
2023/04/21 00:46:58;;;;;;;37.97;26.37;;;6.30;99.90;;;;;;5013226;28;20041;-78
2023/04/21 00:49:24;;;;;;;38.70;25.47;;;6.30;99.90;;;;;;5013209;28;20498;-77
2023/04/21 00:51:51;;;;;;;38.17;25.37;;;6.30;99.90;;;;;;5012790;28;20457;-77
2023/04/21 00:54:18;;;;;;;35.03;25.33;;;6.30;99.90;;;;;;5013272;28;20049;-77
2023/04/21 00:56:44;;;;;;;34.10;25.00;;;6.30;99.90;;;;;;5013096;28;20849;-77
2023/04/21 00:59:09;;;;;;;32.17;23.60;;;6.30;99.90;;;;;;5012399;28;20025;-78
2023/04/21 01:01:35;;;;;;;33.50;24.53;;;6.30;99.90;;;;;;5013045;28;20026;-78
2023/04/21 01:04:02;;;;;;;33.30;25.17;;;6.30;99.90;;;;;;5012213;28;20059;-77
2023/04/21 01:06:31;;;;;;;33.43;24.43;;;6.30;99.90;;;;;;5013195;28;20026;-77
2023/04/21 01:08:56;;;;;;;32.37;24.60;;;6.30;99.90;;;;;;5012454;28;20044;-77
2023/04/21 01:11:22;;;;;;;34.20;24.90;;;6.30;99.90;;;;;;5013257;28;20022;-77
2023/04/21 01:13:50;;;;;;;32.90;24.33;;;6.30;99.90;;;;;;5014902;28;20041;-77
2023/04/21 01:16:17;;;;;;;32.77;23.80;;;6.30;99.90;;;;;;5015877;28;20056;-77
2023/04/21 01:18:43;;;;;;;35.87;24.90;;;6.30;99.90;;;;;;5014727;28;20037;-77
2023/04/21 01:21:10;;;;;;;37.57;26.00;;;6.30;99.90;;;;;;5013143;28;20030;-77
2023/04/21 01:23:36;;;;;;;33.83;24.00;;;6.30;99.90;;;;;;5012609;28;20088;-77
2023/04/21 01:26:01;;;;;;;32.73;24.50;;;6.30;99.90;;;;;;5012305;28;20026;-77
2023/04/21 01:28:27;;;;;;;36.50;25.47;;;6.30;99.90;;;;;;5013096;28;20115;-77
2023/04/21 01:30:53;;;;;;;34.33;25.37;;;6.30;99.90;;;;;;5012044;28;20038;-77
2023/04/21 01:33:20;;;;;;;33.60;24.73;;;6.30;99.90;;;;;;5012920;28;20037;-77
2023/04/21 01:35:46;;;;;;;33.03;25.13;;;6.30;99.90;;;;;;5013411;28;20021;-77
2023/04/21 01:38:12;;;;;;;34.87;26.10;;;6.30;99.90;;;;;;5012490;28;20026;-77
2023/04/21 01:40:40;;;;;;;32.53;25.03;;;6.30;99.90;;;;;;5012376;28;20110;-77
2023/04/21 01:43:06;;;;;;;33.50;24.07;;;6.30;99.90;;;;;;5012496;28;20082;-77
2023/04/21 01:45:32;;;;;;;34.67;25.43;;;6.30;99.90;;;;;;5013100;28;20033;-77
2023/04/21 01:47:57;;;;;;;37.57;25.03;;;6.30;99.90;;;;;;5016221;28;20073;-77
2023/04/21 01:50:23;;;;;;;38.40;25.73;;;6.30;99.90;;;;;;5015944;28;20056;-76
2023/04/21 01:52:48;;;;;;;33.07;24.30;;;6.30;99.90;;;;;;5016841;28;20061;-77
2023/04/21 01:55:14;;;;;;;35.80;26.13;;;6.30;99.90;;;;;;5016008;28;20421;-77
2023/04/21 01:57:39;;;;;;;38.10;24.67;;;6.30;99.90;;;;;;5031220;28;21382;-77
2023/04/21 02:00:06;;;;;;;34.00;24.70;;;6.30;99.90;;;;;;5015841;28;20115;-76
2023/04/21 02:02:31;;;;;;;39.67;25.77;;;6.30;99.90;;;;;;5016248;28;20026;-77
2023/04/21 02:04:57;;;;;;;33.47;24.20;;;6.30;99.90;;;;;;5016233;28;20378;-78
2023/04/21 02:07:23;;;;;;;33.37;25.00;;;6.30;99.90;;;;;;5015802;28;20068;-77
2023/04/21 02:09:48;;;;;;;33.60;25.13;;;6.30;99.90;;;;;;5015385;28;20064;-77
2023/04/21 02:12:14;;;;;;;37.23;25.77;;;6.30;99.90;;;;;;5015464;28;20375;-77
2023/04/21 02:14:39;;;;;;;34.57;25.33;;;6.30;99.90;;;;;;5016209;28;20497;-77
2023/04/21 02:17:05;;;;;;;33.23;25.47;;;6.30;99.90;;;;;;5016041;28;20037;-77
2023/04/21 02:19:31;;;;;;;34.53;25.60;;;6.30;99.90;;;;;;5014976;28;20044;-77
2023/04/21 02:21:57;;;;;;;33.20;24.13;;;6.40;99.90;;;;;;5016081;28;20092;-77
2023/04/21 02:24:22;;;;;;;33.27;24.00;;;6.30;99.90;;;;;;5015707;28;20045;-77
2023/04/21 02:26:48;;;;;;;37.07;25.13;;;6.40;99.90;;;;;;5015886;28;20107;-78
2023/04/21 02:29:13;;;;;;;33.17;24.80;;;6.30;99.90;;;;;;5015632;28;20112;-77
2023/04/21 02:31:40;;;;;;;34.90;24.63;;;6.40;99.90;;;;;;5015170;28;20057;-77
2023/04/21 02:34:06;;;;;;;33.37;24.87;;;6.30;99.90;;;;;;5015582;28;20033;-77
2023/04/21 02:36:32;;;;;;;32.33;24.27;;;6.30;99.90;;;;;;5016077;28;20037;-76
2023/04/21 02:38:57;;;;;;;32.87;24.27;;;6.30;99.90;;;;;;5014990;28;20030;-76
2023/04/21 02:41:23;;;;;;;32.07;24.60;;;6.30;99.90;;;;;;5015442;28;20044;-77
2023/04/21 02:43:49;;;;;;;32.87;24.63;;;6.30;99.90;;;;;;5014993;28;20029;-77
2023/04/21 02:46:14;;;;;;;32.90;25.33;;;6.30;99.90;;;;;;5015127;28;20117;-77
2023/04/21 02:48:40;;;;;;;34.80;25.70;;;6.30;99.90;;;;;;5015309;28;20128;-77
2023/04/21 02:51:11;;;;;;;34.87;26.03;;;6.30;99.90;;;;;;5014375;28;20021;-77
2023/04/21 02:53:36;;;;;;;37.97;26.73;;;6.30;99.90;;;;;;5015029;28;20080;-77
2023/04/21 02:56:03;;;;;;;35.33;26.43;;;6.30;99.90;;;;;;5015508;28;21429;-77
2023/04/21 02:58:29;;;;;;;37.30;26.20;;;6.30;99.90;;;;;;5015081;28;20057;-77
2023/04/21 03:00:55;;;;;;;36.87;27.40;;;6.30;99.90;;;;;;5015072;28;20489;-77
2023/04/21 03:03:21;;;;;;;37.33;27.47;;;6.20;99.90;;;;;;5014479;28;20041;-77
2023/04/21 03:05:47;;;;;;;38.60;27.00;;;6.20;99.90;;;;;;5014809;28;20029;-77
2023/04/21 03:08:12;;;;;;;38.57;27.73;;;6.20;99.90;;;;;;5014912;28;20049;-77
2023/04/21 03:10:38;;;;;;;40.27;27.90;;;6.20;99.90;;;;;;5014878;28;20118;-77
2023/04/21 03:13:04;;;;;;;39.23;27.93;;;6.20;99.90;;;;;;5014548;28;20659;-77
2023/04/21 03:15:29;;;;;;;37.40;27.63;;;6.20;99.90;;;;;;5014965;28;20085;-77
2023/04/21 03:17:55;;;;;;;37.07;25.83;;;6.20;99.90;;;;;;5014886;28;20108;-77
2023/04/21 03:20:21;;;;;;;34.80;25.70;;;6.20;99.90;;;;;;5014271;28;20030;-77
2023/04/21 03:22:46;;;;;;;36.20;25.57;;;6.20;99.90;;;;;;5014487;28;20025;-77
2023/04/21 03:25:12;;;;;;;33.10;24.53;;;6.20;99.90;;;;;;5014631;28;20030;-77
2023/04/21 03:27:37;;;;;;;33.97;23.97;;;6.20;99.90;;;;;;5014346;28;20042;-77
2023/04/21 03:30:04;;;;;;;38.30;25.43;;;6.20;99.90;;;;;;5013830;28;20037;-77
2023/04/21 03:32:29;;;;;;;38.17;26.40;;;6.10;99.90;;;;;;5014681;28;20052;-77
2023/04/21 03:34:55;;;;;;;41.40;29.23;;;6.20;99.90;;;;;;5014737;28;20029;-77
2023/04/21 03:37:20;;;;;;;41.43;26.53;;;6.10;99.90;;;;;;5015086;28;20117;-77
2023/04/21 03:39:46;;;;;;;35.37;25.93;;;6.10;99.90;;;;;;5013966;28;20444;-77
2023/04/21 03:42:12;;;;;;;35.53;26.37;;;6.10;99.90;;;;;;5013575;28;20077;-78
2023/04/21 03:44:37;;;;;;;37.30;26.53;;;6.10;99.90;;;;;;5014045;28;20044;-77
2023/04/21 03:47:03;;;;;;;35.63;26.87;;;6.10;99.90;;;;;;5013454;28;21319;-77
2023/04/21 03:49:29;;;;;;;37.30;26.87;;;6.10;99.90;;;;;;5012861;28;20030;-77
2023/04/21 03:51:54;;;;;;;39.00;27.33;;;6.10;99.90;;;;;;5012879;28;20037;-77
2023/04/21 03:54:20;;;;;;;34.17;25.03;;;6.10;99.90;;;;;;5013453;28;20826;-77
2023/04/21 03:56:45;;;;;;;36.03;26.33;;;6.10;99.90;;;;;;5013075;28;20029;-77
2023/04/21 03:59:11;;;;;;;35.60;25.73;;;6.10;99.90;;;;;;5012558;28;20037;-78
2023/04/21 04:01:36;;;;;;;36.20;26.77;;;6.00;99.90;;;;;;5012715;28;20102;-77
2023/04/21 04:04:02;;;;;;;37.17;27.57;;;6.00;99.90;;;;;;5013052;28;20060;-77
2023/04/21 04:06:27;;;;;;;39.97;27.13;;;6.00;99.90;;;;;;5013017;28;20064;-77
2023/04/21 04:08:53;;;;;;;36.60;26.80;;;6.00;99.90;;;;;;5012706;28;20098;-75
2023/04/21 04:11:19;;;;;;;37.80;27.53;;;5.90;99.90;;;;;;5013623;28;20036;-79
2023/04/21 04:13:44;;;;;;;37.53;27.60;;;5.90;99.90;;;;;;5014280;28;20026;-78
2023/04/21 04:16:10;;;;;;;40.03;27.87;;;5.90;99.90;;;;;;5014108;28;20076;-78
2023/04/21 04:18:35;;;;;;;39.23;28.10;;;5.90;99.90;;;;;;5015077;28;20055;-78
2023/04/21 04:21:06;;;;;;;40.10;28.47;;;5.90;99.90;;;;;;5013842;28;20022;-78
2023/04/21 04:23:32;;;;;;;41.57;29.20;;;5.80;99.90;;;;;;5015044;28;20026;-77
2023/04/21 04:25:58;;;;;;;39.20;27.97;;;5.80;99.90;;;;;;5014369;28;20038;-78
2023/04/21 04:28:23;;;;;;;39.90;26.77;;;5.80;99.90;;;;;;5014194;28;20037;-78
2023/04/21 04:30:49;;;;;;;42.90;28.23;;;5.80;99.90;;;;;;5014214;28;20508;-78
2023/04/21 04:33:15;;;;;;;37.00;26.00;;;5.70;99.90;;;;;;5014448;28;20049;-78
2023/04/21 04:35:40;;;;;;;40.43;27.97;;;5.70;99.90;;;;;;5014116;28;20029;-78
2023/04/21 04:38:06;;;;;;;49.23;32.13;;;5.70;99.90;;;;;;5014100;28;20037;-78
2023/04/21 04:40:32;;;;;;;52.73;37.43;;;5.70;99.90;;;;;;5014544;28;20052;-78
2023/04/21 04:42:58;;;;;;;50.67;34.93;;;5.70;99.90;;;;;;5014520;28;20045;-78
2023/04/21 04:45:27;;;;;;;45.60;31.10;;;5.70;99.90;;;;;;5014336;28;20033;-78
2023/04/21 04:47:52;;;;;;;43.87;29.47;;;5.70;99.90;;;;;;5012732;28;20572;-78
2023/04/21 04:50:18;;;;;;;44.30;27.90;;;5.70;99.90;;;;;;5014514;28;20045;-78
2023/04/21 04:52:45;;;;;;;43.53;29.83;;;5.70;99.90;;;;;;5015324;28;20055;-78
2023/04/21 04:55:11;;;;;;;43.63;28.73;;;5.70;99.90;;;;;;5015525;28;20030;-78
2023/04/21 04:57:37;;;;;;;46.03;29.77;;;5.70;99.90;;;;;;5017462;28;20072;-78
2023/04/21 05:00:07;;;;;;;41.07;28.77;;;5.70;99.90;;;;;;5018488;28;20033;-78
2023/04/21 05:02:32;;;;;;;42.67;29.53;;;5.70;99.90;;;;;;5026800;28;20105;-77
2023/04/21 05:04:58;;;;;;;43.97;29.60;;;5.70;99.90;;;;;;5017355;28;20125;-78
2023/04/21 05:07:23;;;;;;;44.63;31.10;;;5.80;99.90;;;;;;5013583;28;20086;-79
2023/04/21 05:09:49;;;;;;;52.23;35.50;;;5.80;99.90;;;;;;5014443;28;20022;-78
2023/04/21 05:12:14;;;;;;;45.83;31.50;;;5.80;99.90;;;;;;5015220;28;20042;-77
2023/04/21 05:14:40;;;;;;;44.97;30.10;;;5.80;99.90;;;;;;5014235;28;20041;-78
2023/04/21 05:17:05;;;;;;;43.23;29.30;;;5.90;99.90;;;;;;5014800;28;20064;-80
2023/04/21 05:19:34;;;;;;;41.90;30.00;;;5.90;99.90;;;;;;5013383;28;20056;-80
2023/04/21 05:22:00;;;;;;;47.17;31.43;;;6.00;99.90;;;;;;5015717;28;20033;-78
2023/04/21 05:24:25;;;;;;;47.30;32.93;;;6.00;99.90;;;;;;5010026;28;20389;-78
2023/04/21 05:26:51;;;;;;;48.80;33.27;;;6.00;99.90;;;;;;5016241;28;20132;-78
2023/04/21 05:29:16;;;;;;;46.57;31.53;;;6.00;99.90;;;;;;5016018;28;20028;-78
2023/04/21 05:31:42;;;;;;;44.47;31.00;;;6.10;99.90;;;;;;5016014;28;20030;-78
2023/04/21 05:34:08;;;;;;;46.07;32.03;;;6.10;99.90;;;;;;5017780;28;20079;-77
2023/04/21 05:36:33;;;;;;;47.10;31.77;;;6.10;99.90;;;;;;5018456;28;20029;-77
2023/04/21 05:38:59;;;;;;;46.07;32.57;;;6.20;99.90;;;;;;5021034;28;20116;-77
2023/04/21 05:41:24;;;;;;;43.90;29.73;;;6.20;99.90;;;;;;5018839;28;20120;-78
2023/04/21 05:43:50;;;;;;;42.63;29.93;;;6.20;99.90;;;;;;5018074;28;20152;-78
2023/04/21 05:46:15;;;;;;;44.97;31.03;;;6.20;99.90;;;;;;5019518;28;20026;-78
2023/04/21 05:48:41;;;;;;;38.27;28.10;;;6.30;99.90;;;;;;5018751;28;21103;-78
2023/04/21 05:51:11;;;;;;;38.50;28.47;;;6.30;99.90;;;;;;5019518;28;20112;-78
2023/04/21 05:53:37;;;;;;;41.20;29.33;;;6.30;99.90;;;;;;5019596;28;20034;-77
2023/04/21 05:56:03;;;;;;;40.53;29.50;;;6.40;99.90;;;;;;5019783;28;20032;-77
2023/04/21 05:58:29;;;;;;;44.27;30.57;;;6.40;99.90;;;;;;5020358;28;20030;-77
2023/04/21 06:00:54;;;;;;;43.80;30.27;;;6.50;99.90;;;;;;5019555;28;20079;-78
2023/04/21 06:03:20;;;;;;;41.47;29.47;;;6.50;99.90;;;;;;5020983;28;20030;-77
2023/04/21 06:05:46;;;;;;;45.33;30.73;;;6.60;99.90;;;;;;5021288;28;20057;-77
2023/04/21 06:08:11;;;;;;;40.77;30.53;;;6.70;99.90;;;;;;5020859;28;20045;-77
2023/04/21 06:10:37;;;;;;;43.43;31.07;;;6.90;99.90;;;;;;5019988;28;20022;-78
2023/04/21 06:13:03;;;;;;;38.43;28.03;;;7.00;99.90;;;;;;5020049;28;20029;-78
2023/04/21 06:15:28;;;;;;;44.90;29.93;;;7.00;99.90;;;;;;5022450;28;20034;-79
2023/04/21 06:17:54;;;;;;;43.70;31.17;;;7.10;99.90;;;;;;5022005;28;20026;-78
2023/04/21 06:20:20;;;;;;;43.57;31.33;;;7.20;99.90;;;;;;5019169;28;20053;-78
2023/04/21 06:22:45;;;;;;;43.27;30.80;;;7.20;99.90;;;;;;5018094;28;20084;-78
2023/04/21 06:25:11;;;;;;;44.00;29.97;;;7.30;99.90;;;;;;5016224;28;20029;-78
2023/04/21 06:27:36;;;;;;;45.00;31.90;;;7.40;99.90;;;;;;5016132;28;20144;-78
2023/04/21 06:30:02;;;;;;;49.50;37.43;;;7.50;99.90;;;;;;5016644;28;20165;-77
2023/04/21 06:32:28;;;;;;;51.00;31.53;;;7.60;99.90;;;;;;5016584;28;20352;-77
2023/04/21 06:34:53;;;;;;;42.37;29.90;;;7.70;99.90;;;;;;5017016;28;20508;-77
2023/04/21 06:37:19;;;;;;;40.57;30.20;;;7.80;99.90;;;;;;5016048;28;20121;-77
2023/04/21 06:39:44;;;;;;;39.87;29.27;;;7.90;99.90;;;;;;5014618;28;21686;-77
2023/04/21 06:42:10;;;;;;;41.57;30.10;;;8.10;99.90;;;;;;5015088;28;20104;-78
2023/04/21 06:44:37;;;;;;;42.43;29.90;;;8.20;99.90;;;;;;5015356;28;20160;-78
2023/04/21 06:47:02;;;;;;;42.57;29.20;;;8.40;99.90;;;;;;5014740;28;20152;-78
2023/04/21 06:49:28;;;;;;;39.17;28.13;;;8.50;99.90;;;;;;5015481;28;20022;-78
2023/04/21 06:51:54;;;;;;;37.37;27.47;;;8.60;99.90;;;;;;5016004;28;20753;-77
2023/04/21 06:54:20;;;;;;;38.30;28.43;;;8.70;99.90;;;;;;5016053;28;20424;-77
2023/04/21 06:56:45;;;;;;;41.10;27.50;;;8.70;99.90;;;;;;5015648;28;20029;-77
2023/04/21 06:59:11;;;;;;;40.17;28.10;;;8.70;99.90;;;;;;5015722;28;20032;-77
2023/04/21 07:01:36;;;;;;;43.80;28.93;;;8.80;99.90;;;;;;5015117;28;20618;-77
2023/04/21 07:04:05;;;;;;;38.50;28.33;;;8.90;99.90;;;;;;5014115;28;20102;-77
2023/04/21 07:06:31;;;;;;;44.27;30.90;;;8.90;99.90;;;;;;5014860;28;20103;-77
2023/04/21 07:08:56;;;;;;;38.20;28.47;;;9.00;99.90;;;;;;5015752;28;20429;-77
2023/04/21 07:11:22;;;;;;;38.70;28.93;;;9.00;99.90;;;;;;5014793;28;20021;-77
2023/04/21 07:13:47;;;;;;;36.63;26.80;;;9.00;99.90;;;;;;5014885;28;20040;-77
2023/04/21 07:16:13;;;;;;;37.67;25.60;;;9.10;99.90;;;;;;5014931;28;20029;-77
2023/04/21 07:18:40;;;;;;;37.70;25.90;;;9.10;99.90;;;;;;5015848;28;20022;-78
2023/04/21 07:21:06;;;;;;;35.07;25.80;;;9.10;99.90;;;;;;5016030;28;20040;-78
2023/04/21 07:23:32;;;;;;;34.37;26.20;;;9.20;99.90;;;;;;5016317;28;20240;-78
2023/04/21 07:25:58;;;;;;;38.50;26.40;;;9.20;99.90;;;;;;5015610;28;20567;-78
2023/04/21 07:28:24;;;;;;;41.20;27.77;;;9.30;99.90;;;;;;5014621;28;20041;-77
2023/04/21 07:30:49;;;;;;;35.47;26.13;;;9.30;99.90;;;;;;5015079;28;20536;-77
2023/04/21 07:33:15;;;;;;;34.97;26.40;;;9.40;99.90;;;;;;5015944;28;20026;-77
2023/04/21 07:35:41;;;;;;;36.23;26.53;;;9.40;99.90;;;;;;5015445;28;20033;-78
2023/04/21 07:38:06;;;;;;;36.93;25.30;;;9.60;99.90;;;;;;5014747;28;20528;-77
2023/04/21 07:40:32;;;;;;;38.37;26.10;;;9.60;99.90;;;;;;5013500;28;20518;-77
2023/04/21 07:42:58;;;;;;;36.57;25.03;;;9.60;99.90;;;;;;5011880;28;20068;-78
2023/04/21 07:45:24;;;;;;;35.13;26.17;;;9.70;99.90;;;;;;5011141;28;20030;-77
2023/04/21 07:47:50;;;;;;;34.13;24.87;;;9.70;99.90;;;;;;5011439;28;20052;-77
2023/04/21 07:50:16;;;;;;;36.77;26.13;;;9.70;99.90;;;;;;5011591;28;20379;-74
2023/04/21 07:52:41;;;;;;;38.57;25.13;;;9.80;99.90;;;;;;5011088;28;20104;-72
2023/04/21 07:55:07;;;;;;;31.57;24.30;;;9.80;99.90;;;;;;5011478;28;20034;-78
2023/04/21 07:57:37;;;;;;;35.07;24.23;;;9.90;99.90;;;;;;5011186;28;20505;-78
2023/04/21 08:00:06;;;;;;;35.47;25.43;;;10.00;99.90;;;;;;5010306;28;20344;-79
2023/04/21 08:02:32;;;;;;;36.67;26.00;;;10.10;99.90;;;;;;5011539;28;20045;-78
2023/04/21 08:04:57;;;;;;;35.60;24.67;;;10.10;99.90;;;;;;5011324;28;20025;-78
2023/04/21 08:07:23;;;;;;;37.03;25.30;;;10.10;99.90;;;;;;5011087;28;20474;-78
2023/04/21 08:09:49;;;;;;;32.73;24.53;;;10.10;99.90;;;;;;5010198;28;20033;-77
2023/04/21 08:12:14;;;;;;;34.10;24.43;;;10.20;99.90;;;;;;5011054;28;20041;-78
2023/04/21 08:14:40;;;;;;;33.28;24.88;;;10.50;99.90;;;;;;5006522;28;20029;-78
2023/04/21 08:17:05;;;;;;;33.63;23.57;;;10.60;99.90;;;;;;5009835;28;20099;-78
2023/04/21 08:19:31;;;;;;;31.03;22.83;;;10.60;99.90;;;;;;5009396;28;20032;-78
2023/04/21 08:21:57;;;;;;;31.50;23.27;;;10.70;99.90;;;;;;5009365;28;20407;-78
2023/04/21 08:24:23;;;;;;;31.60;22.77;;;10.80;99.90;;;;;;5009829;28;21847;-78
2023/04/21 08:26:48;;;;;;;30.70;22.95;;;11.00;99.90;;;;;;5010348;28;20096;-79
2023/04/21 08:29:15;;;;;;;33.30;22.97;;;11.00;99.90;;;;;;5008675;28;20135;-78
2023/04/21 08:31:40;;;;;;;31.27;21.53;;;11.10;99.90;;;;;;5009257;28;20042;-78
2023/04/21 08:34:06;;;;;;;25.23;19.77;;;11.20;99.90;;;;;;5010313;28;20034;-78
2023/04/21 08:36:32;;;;;;;27.10;19.10;;;11.40;99.90;;;;;;5009566;28;20029;-78
2023/04/21 08:38:58;;;;;;;27.23;19.60;;;11.60;99.90;;;;;;5009321;28;20501;-78
2023/04/21 08:41:24;;;;;;;24.85;19.50;;;11.90;99.90;;;;;;5008771;28;20029;-79
2023/04/21 08:43:50;;;;;;;24.52;18.05;;;12.20;99.90;;;;;;5008276;28;20109;-76
2023/04/21 08:46:17;;;;;;;24.33;17.08;;;12.40;99.90;;;;;;5009762;28;20038;-77
2023/04/21 08:48:45;;;;;;;24.65;17.30;;;12.60;99.90;;;;;;5012283;28;20075;-78
2023/04/21 08:51:19;;;;;;;22.73;17.42;;;12.90;99.90;;;;;;5009030;28;20751;-79
2023/04/21 08:53:45;;;;;;;22.43;16.37;;;13.10;99.90;;;;;;5009417;28;20037;-77
2023/04/21 08:56:10;;;;;;;20.98;14.95;;;13.20;99.90;;;;;;5011838;28;20761;-78
2023/04/21 08:58:36;;;;;;;20.58;15.60;;;13.10;99.90;;;;;;5012232;28;20041;-78
2023/04/21 09:01:01;;;;;;;25.33;17.65;;;13.00;99.90;;;;;;5012441;28;20040;-78
2023/04/21 09:03:29;;;;;;;22.08;15.25;;;12.90;99.90;;;;;;5013575;28;20038;-78
2023/04/21 09:06:00;;;;;;;21.40;15.43;;;12.80;99.90;;;;;;5012866;28;20030;-78
2023/04/21 09:08:27;;;;;;;18.85;14.18;;;12.60;99.90;;;;;;5013940;28;20422;-78
2023/04/21 09:10:53;;;;;;;19.65;14.77;;;12.50;99.90;;;;;;5020958;28;20531;-82
2023/04/21 09:13:19;;;;;;;17.50;12.93;;;12.50;99.90;;;;;;5026525;28;20038;-81
2023/04/21 09:15:47;;;;;;;20.50;12.27;;;12.80;99.90;;;;;;5022826;28;20037;-81
2023/04/21 09:18:15;;;;;;;18.40;11.88;;;13.00;99.90;;;;;;5024594;28;20037;-81
2023/04/21 09:20:42;;;;;;;15.80;11.07;;;13.10;99.90;;;;;;5026137;28;20092;-81
2023/04/21 09:23:09;;;;;;;16.88;11.60;;;13.20;99.90;;;;;;5027410;28;21166;-81
2023/04/21 09:25:38;;;;;;;17.02;11.98;;;13.20;99.90;;;;;;5026544;28;20033;-81
2023/04/21 09:28:10;;;;;;;15.30;11.40;;;13.40;99.90;;;;;;5026803;28;20052;-81
2023/04/21 09:30:40;;;;;;;15.48;11.27;;;13.50;99.90;;;;;;5026472;28;20033;-81
2023/04/21 09:33:06;;;;;;;12.90;10.40;;;13.80;99.90;;;;;;5026718;28;20389;-80
2023/04/21 09:35:34;;;;;;;14.07;10.30;;;13.90;99.90;;;;;;5027838;28;20044;-81
2023/04/21 09:38:01;;;;;;;16.73;11.27;;;13.90;99.90;;;;;;5027801;28;20021;-81
2023/04/21 09:40:30;;;;;;;12.13;9.95;;;13.90;99.90;;;;;;5024337;28;20042;-82
2023/04/21 09:42:56;;;;;;;12.00;9.57;;;14.10;99.90;;;;;;5024843;28;20022;-81
2023/04/21 09:45:26;;;;;;;16.58;10.88;;;14.30;99.90;;;;;;5027605;28;20169;-81
2023/04/21 09:47:57;;;;;;;13.68;10.68;;;14.40;99.90;;;;;;5027155;28;20048;-81
2023/04/21 09:50:24;;;;;;;12.80;10.30;;;14.60;99.90;;;;;;5026912;28;20089;-81
2023/04/21 09:52:51;;;;;;;16.88;11.23;;;14.50;99.90;;;;;;5027347;28;20018;-81
2023/04/21 09:55:18;;;;;;;14.57;10.57;;;14.50;99.90;;;;;;5026380;28;20029;-81
2023/04/21 09:57:49;;;;;;;12.55;9.93;;;14.40;99.90;;;;;;5027108;28;20036;-81
2023/04/21 10:00:17;;;;;;;16.80;8.57;;;14.50;99.90;;;;;;5025326;28;20038;-80
2023/04/21 10:02:46;;;;;;;15.32;10.18;;;14.70;99.90;;;;;;5025529;28;20030;-81
2023/04/21 10:05:12;;;;;;;14.75;11.45;;;14.70;99.90;;;;;;5026699;28;20093;-81
2023/04/21 10:07:38;;;;;;;14.32;10.10;;;14.80;99.90;;;;;;5025327;28;20094;-81
2023/04/21 10:10:07;;;;;;;15.93;12.18;;;14.90;99.90;;;;;;5017489;28;20088;-73
2023/04/21 10:12:34;;;;;;;14.00;11.32;;;15.00;99.90;;;;;;5013715;28;20026;-74
2023/04/21 10:15:26;;;;;;;16.45;11.77;;;15.30;99.90;;;;;;5012958;28;20462;-74
2023/04/21 10:17:51;;;;;;;16.85;12.50;;;15.40;99.90;;;;;;5012993;28;20022;-75
2023/04/21 10:20:17;;;;;;;17.98;11.32;;;15.70;99.90;;;;;;5011978;28;20095;-78
2023/04/21 10:22:42;;;;;;;15.07;11.15;;;16.00;99.90;;;;;;5013461;28;20029;-78
2023/04/21 10:25:09;;;;;;;18.30;12.18;;;16.10;99.90;;;;;;5012825;28;20044;-79
2023/04/21 10:27:41;;;;;;;14.55;11.52;;;16.20;99.90;;;;;;5012399;28;20472;-78
2023/04/21 10:30:21;;;;;;;16.23;11.77;;;16.20;99.90;;;;;;5012563;28;20116;-78
2023/04/21 10:32:47;;;;;;;14.93;10.27;;;16.20;99.90;;;;;;5012662;28;20030;-78
2023/04/21 10:35:16;;;;;;;13.98;10.18;;;16.20;99.90;;;;;;5013174;28;20051;-78
2023/04/21 10:37:42;;;;;;;13.30;10.25;;;16.50;99.90;;;;;;5012168;28;20038;-78
2023/04/21 10:40:35;;;;;;;14.27;9.32;;;16.60;99.90;;;;;;5011232;28;20040;-80
2023/04/21 10:43:03;;;;;;;10.23;9.13;;;16.80;99.90;;;;;;5013153;28;20025;-77
2023/04/21 10:45:30;;;;;;;15.82;9.90;;;16.90;99.90;;;;;;5012691;28;20450;-79
2023/04/21 10:47:58;;;;;;;14.75;9.95;;;17.00;99.90;;;;;;5012080;28;20043;-78
2023/04/21 10:50:28;;;;;;;10.90;9.43;;;16.90;99.90;;;;;;5012395;28;20108;-79
2023/04/21 10:53:11;;;;;;;12.18;8.98;;;17.00;99.90;;;;;;5011196;28;20084;-79
2023/04/21 10:55:37;;;;;;;11.73;9.13;;;17.10;99.90;;;;;;5012396;28;20162;-79
2023/04/21 10:58:07;;;;;;;13.38;9.52;;;17.20;99.90;;;;;;5010923;28;20036;-80
2023/04/21 11:00:37;;;;;;;10.15;7.72;;;17.20;99.90;;;;;;5015284;28;20093;-81
2023/04/21 11:03:05;;;;;;;10.80;7.97;;;17.30;99.90;;;;;;5015595;28;20033;-79
2023/04/21 11:05:40;;;;;;;12.93;8.25;;;17.40;99.90;;;;;;5014273;28;20041;-79
2023/04/21 11:08:13;;;;;;;;;;;17.40;99.90;;;;;;5013629;28;20041;-79
2023/04/21 11:10:51;;;;;;;10.38;8.80;;;17.70;99.90;;;;;;5012364;28;20681;-77
2023/04/21 11:13:20;;;;;;;8.90;7.03;;;17.80;99.90;;;;;;5011836;28;20178;-77
2023/04/21 11:15:56;;;;;;;8.52;6.68;;;18.00;99.90;;;;;;5011507;28;20021;-77
2023/04/21 11:18:38;;;;;;;8.07;6.65;;;18.30;99.90;;;;;;5011540;28;20026;-77
2023/04/21 11:21:17;;;;;;;8.40;6.25;;;18.80;99.90;;;;;;5011362;28;20461;-77
2023/04/21 11:23:53;;;;;;;10.45;8.15;;;19.30;99.90;;;;;;5012155;28;20604;-77
2023/04/21 11:26:33;;;;;;;12.40;8.10;;;19.50;99.90;;;;;;5011778;28;20592;-82
2023/04/21 11:29:06;;;;;;;10.57;8.68;;;19.50;99.90;;;;;;5011486;28;20301;-78
2023/04/21 11:31:32;;;;;;;13.27;9.65;;;19.70;99.90;;;;;;5011427;28;20045;-81
2023/04/21 11:33:58;;;;;;;13.30;9.00;;;19.50;99.90;;;;;;5011555;28;20075;-78
2023/04/21 11:36:24;;;;;;;10.98;9.50;;;19.50;99.90;;;;;;5011336;28;21368;-79
2023/04/21 11:38:50;;;;;;;13.30;10.60;;;19.70;99.90;;;;;;5012329;28;20034;-79
2023/04/21 11:41:22;;;;;;;13.18;11.15;;;19.70;99.90;;;;;;5006974;28;20781;-78
2023/04/21 11:43:49;;;;;;;13.23;11.27;;;19.60;99.90;;;;;;5010039;28;20651;-78
2023/04/21 11:46:25;;;;;;;11.95;10.48;;;19.70;99.90;;;;;;5009948;28;20036;-79
2023/04/21 11:49:10;;;;;;;16.48;13.23;;;19.60;99.90;;;;;;5010715;28;21407;-78
2023/04/21 11:51:38;;;;;;;14.88;12.57;;;19.60;99.90;;;;;;5009974;28;20021;-78
2023/04/21 11:54:06;;;;;;;16.85;12.80;;;19.60;99.90;;;;;;5009926;28;20039;-78
2023/04/21 11:56:45;;;;;;;16.10;12.68;;;19.90;99.90;;;;;;5010067;28;20426;-78
2023/04/21 11:59:14;;;;;;;15.75;12.85;;;20.00;99.90;;;;;;5010130;28;20022;-78
2023/04/21 12:01:47;;;;;;;14.48;12.30;;;20.20;99.90;;;;;;5009310;28;20076;-78
2023/04/21 12:04:15;;;;;;;16.17;12.55;;;20.10;99.90;;;;;;5009529;28;20127;-78
2023/04/21 12:06:42;;;;;;;12.68;11.07;;;20.20;99.90;;;;;;5009839;28;20482;-78
2023/04/21 12:09:07;;;;;;;12.63;10.38;;;20.30;99.90;;;;;;5009624;28;20523;-81
2023/04/21 12:11:33;;;;;;;11.77;10.23;;;20.40;99.90;;;;;;5008707;28;20030;-79
2023/04/21 12:14:00;;;;;;;13.45;10.30;;;20.30;99.90;;;;;;5009037;28;20044;-80
2023/04/21 12:16:28;;;;;;;12.65;9.85;;;20.60;99.90;;;;;;5009841;28;20117;-78
2023/04/21 12:18:55;;;;;;;10.70;9.25;;;20.50;99.90;;;;;;5009287;28;20029;-80
2023/04/21 12:21:20;;;;;;;13.95;10.15;;;20.70;99.90;;;;;;5009202;28;20041;-79
2023/04/21 12:23:46;;;;;;;12.85;10.77;;;20.60;99.90;;;;;;5008409;28;20846;-80
2023/04/21 12:26:12;;;;;;;13.10;10.55;;;20.70;99.90;;;;;;5008948;28;20071;-78
2023/04/21 12:28:38;;;;;;;11.75;10.02;;;20.70;99.90;;;;;;5009949;28;20037;-78
2023/04/21 12:31:04;;;;;;;14.43;11.60;;;20.60;99.90;;;;;;5007824;28;20907;-79
2023/04/21 12:33:30;;;;;;;11.05;9.52;;;20.80;99.90;;;;;;5009676;28;20022;-79